Pagina principală
METAR-TAF:

METAR-TAF

Aeroporturi :

Kwajalein, Insulele Marshall

Latitudine: 08-43N, longitudine: 167-44E, elevație: 3 m

Observații meteo curente

Raportul a fost făcut în urmă cu 23 de minute, la 17:20 UTC
Vânt 12 kt de la Est
Temperatură 28°C
Umiditate 84%
Presiune 1010 hPa
Vizibilitate: 16.1 km
Nori împrăștiați la o înălțime de 1600 picior
Nori împrăștiați la o înălțime de 2600 picior

METAR: PKWA 211720Z AUTO 08012KT 10SM SCT016 SCT026 28/25 A2982 RMK AO2 T02780251 TSNO

Ora: 05:43 (17:43 UTC)

Prognoză

Raportul a fost făcut în urmă cu 23 de minute, la 17:20 UTC
Prognoză valabilă de la 21 ora 18 UTC la 22 ora 18 UTC
Vânt 12 kt de la Est/Nord-est
Vizibilitate: 10 km
Nori puțini la o înălțime de 1400 picior
Nori împrăștiați la o înălțime de 12000 picior

TAF: PKWA 211720Z 2118/2218 06012KT P6SM FEW014 SCT120

Observații și prognoze meteo pentru peste 4.000 de aeroporturi (rapoarte METAR și TAF).

Stațiile disponibile sunt reprezentate pe hartă prin puncte galbene și roșii.

Țineți indicatorul mouse-ului pe punctul dorit pentru a vedea denumirea stației.

Apoi, faceți clic pentru a vedea observațiile și prognozele meteorologice.

Pentru a schimba harta: Pentru mărire, faceți clic pe butoanele verzi cu cruce neagră; pentru micșorare, pe butonul verde cu o liniuță; pentru hărți învecinate, pe săgețile verzi.


METAR-TAF: